sensor_id;sensor_type;location;lat;lon;timestamp;pressure;altitude;pressure_sealevel;temperature
50206;BMP280;36098;48.390;10.856;2023-08-07T00:00:19;95756.81;;;24.25
50206;BMP280;36098;48.390;10.856;2023-08-07T00:02:44;95758.41;;;24.26
50206;BMP280;36098;48.390;10.856;2023-08-07T00:05:09;95757.88;;;24.24
50206;BMP280;36098;48.390;10.856;2023-08-07T00:07:35;95751.53;;;24.25
50206;BMP280;36098;48.390;10.856;2023-08-07T00:10:00;95758.16;;;24.22
50206;BMP280;36098;48.390;10.856;2023-08-07T00:12:28;95756.59;;;24.21
50206;BMP280;36098;48.390;10.856;2023-08-07T00:14:54;95760.00;;;24.22
50206;BMP280;36098;48.390;10.856;2023-08-07T00:17:19;95761.81;;;24.26
50206;BMP280;36098;48.390;10.856;2023-08-07T00:19:44;95768.16;;;24.25
50206;BMP280;36098;48.390;10.856;2023-08-07T00:22:09;95768.41;;;24.24
50206;BMP280;36098;48.390;10.856;2023-08-07T00:24:35;95766.59;;;24.24
50206;BMP280;36098;48.390;10.856;2023-08-07T00:27:00;95756.44;;;24.31
50206;BMP280;36098;48.390;10.856;2023-08-07T00:29:26;95754.63;;;24.32
50206;BMP280;36098;48.390;10.856;2023-08-07T00:31:51;95769.72;;;24.26
50206;BMP280;36098;48.390;10.856;2023-08-07T00:34:17;95756.75;;;24.30
50206;BMP280;36098;48.390;10.856;2023-08-07T00:36:42;95760.16;;;24.30
50206;BMP280;36098;48.390;10.856;2023-08-07T00:39:07;95760.16;;;24.30
50206;BMP280;36098;48.390;10.856;2023-08-07T00:41:33;95764.94;;;24.28
50206;BMP280;36098;48.390;10.856;2023-08-07T00:43:59;95755.97;;;24.29
50206;BMP280;36098;48.390;10.856;2023-08-07T00:46:24;95751.97;;;24.32
50206;BMP280;36098;48.390;10.856;2023-08-07T00:48:51;95767.00;;;24.31
50206;BMP280;36098;48.390;10.856;2023-08-07T00:51:17;95763.31;;;24.32
50206;BMP280;36098;48.390;10.856;2023-08-07T00:53:42;95758.03;;;24.32
50206;BMP280;36098;48.390;10.856;2023-08-07T00:56:08;95766.44;;;24.34
50206;BMP280;36098;48.390;10.856;2023-08-07T00:58:34;95768.56;;;24.32
50206;BMP280;36098;48.390;10.856;2023-08-07T01:00:59;95755.38;;;24.32
50206;BMP280;36098;48.390;10.856;2023-08-07T01:03:25;95763.78;;;24.34
50206;BMP280;36098;48.390;10.856;2023-08-07T01:05:50;95750.81;;;24.38
50206;BMP280;36098;48.390;10.856;2023-08-07T01:08:16;95750.25;;;24.41
50206;BMP280;36098;48.390;10.856;2023-08-07T01:13:32;95768.38;;;24.29
50206;BMP280;36098;48.390;10.856;2023-08-07T01:16:06;95759.31;;;24.35
50206;BMP280;36098;48.390;10.856;2023-08-07T01:18:34;95757.41;;;24.40
50206;BMP280;36098;48.390;10.856;2023-08-07T01:21:03;95759.53;;;24.38
50206;BMP280;36098;48.390;10.856;2023-08-07T01:23:28;95765.94;;;24.32
50206;BMP280;36098;48.390;10.856;2023-08-07T01:25:53;95770.38;;;24.37
50206;BMP280;36098;48.390;10.856;2023-08-07T01:28:27;95771.88;;;24.43
50206;BMP280;36098;48.390;10.856;2023-08-07T01:30:58;95777.66;;;24.45
50206;BMP280;36098;48.390;10.856;2023-08-07T01:33:31;95770.59;;;24.40
50206;BMP280;36098;48.390;10.856;2023-08-07T01:35:58;95775.66;;;24.37
50206;BMP280;36098;48.390;10.856;2023-08-07T01:38:25;95778.59;;;24.35
50206;BMP280;36098;48.390;10.856;2023-08-07T01:40:52;95774.88;;;24.36
50206;BMP280;36098;48.390;10.856;2023-08-07T01:43:18;95779.34;;;24.36
50206;BMP280;36098;48.390;10.856;2023-08-07T01:45:44;95779.09;;;24.37
50206;BMP280;36098;48.390;10.856;2023-08-07T01:48:09;95777.22;;;24.38
50206;BMP280;36098;48.390;10.856;2023-08-07T01:50:35;95776.72;;;24.36
50206;BMP280;36098;48.390;10.856;2023-08-07T01:53:01;95790.13;;;24.39
50206;BMP280;36098;48.390;10.856;2023-08-07T01:55:27;95787.53;;;24.34
50206;BMP280;36098;48.390;10.856;2023-08-07T01:57:53;95790.91;;;24.40
50206;BMP280;36098;48.390;10.856;2023-08-07T02:00:18;95790.63;;;24.41
50206;BMP280;36098;48.390;10.856;2023-08-07T02:02:43;95797.06;;;24.35
50206;BMP280;36098;48.390;10.856;2023-08-07T02:05:10;95799.16;;;24.33
50206;BMP280;36098;48.390;10.856;2023-08-07T02:07:36;95802.59;;;24.34
50206;BMP280;36098;48.390;10.856;2023-08-07T02:10:01;95807.09;;;24.33
50206;BMP280;36098;48.390;10.856;2023-08-07T02:12:26;95788.28;;;24.40
50206;BMP280;36098;48.390;10.856;2023-08-07T02:14:52;95788.56;;;24.38
50206;BMP280;36098;48.390;10.856;2023-08-07T02:17:20;95802.59;;;24.34
50206;BMP280;36098;48.390;10.856;2023-08-07T02:19:46;95803.38;;;24.34
50206;BMP280;36098;48.390;10.856;2023-08-07T02:22:11;95799.69;;;24.35
50206;BMP280;36098;48.390;10.856;2023-08-07T02:24:37;95790.72;;;24.36
50206;BMP280;36098;48.390;10.856;2023-08-07T02:27:02;95802.03;;;24.37
50206;BMP280;36098;48.390;10.856;2023-08-07T02:29:27;95805.00;;;24.30
50206;BMP280;36098;48.390;10.856;2023-08-07T02:31:55;95800.81;;;24.29
50206;BMP280;36098;48.390;10.856;2023-08-07T02:34:20;95807.97;;;24.29
50206;BMP280;36098;48.390;10.856;2023-08-07T02:36:45;95812.16;;;24.30
50206;BMP280;36098;48.390;10.856;2023-08-07T02:39:10;95818.38;;;24.39
50206;BMP280;36098;48.390;10.856;2023-08-07T02:41:36;95812.91;;;24.35
50206;BMP280;36098;48.390;10.856;2023-08-07T02:44:01;95812.44;;;24.28
50206;BMP280;36098;48.390;10.856;2023-08-07T02:46:26;95819.78;;;24.31
50206;BMP280;36098;48.390;10.856;2023-08-07T02:48:51;95819.50;;;24.33
50206;BMP280;36098;48.390;10.856;2023-08-07T02:51:18;95818.00;;;24.27
50206;BMP280;36098;48.390;10.856;2023-08-07T02:53:44;95820.69;;;24.22
50206;BMP280;36098;48.390;10.856;2023-08-07T02:56:09;95820.84;;;24.30
50206;BMP280;36098;48.390;10.856;2023-08-07T02:58:34;95821.31;;;24.37
50206;BMP280;36098;48.390;10.856;2023-08-07T03:01:04;95826.63;;;24.32
50206;BMP280;36098;48.390;10.856;2023-08-07T03:03:31;95825.06;;;24.31
50206;BMP280;36098;48.390;10.856;2023-08-07T03:05:56;95826.94;;;24.31
50206;BMP280;36098;48.390;10.856;2023-08-07T03:08:21;95820.84;;;24.30
50206;BMP280;36098;48.390;10.856;2023-08-07T03:10:54;95820.84;;;24.30
50206;BMP280;36098;48.390;10.856;2023-08-07T03:13:24;95834.03;;;24.30
50206;BMP280;36098;48.390;10.856;2023-08-07T03:15:50;95828.25;;;24.28
50206;BMP280;36098;48.390;10.856;2023-08-07T03:18:18;95831.41;;;24.30
50206;BMP280;36098;48.390;10.856;2023-08-07T03:20:44;95838.31;;;24.26
50206;BMP280;36098;48.390;10.856;2023-08-07T03:23:10;95836.41;;;24.32
50206;BMP280;36098;48.390;10.856;2023-08-07T03:25:35;95836.69;;;24.30
50206;BMP280;36098;48.390;10.856;2023-08-07T03:28:01;95839.31;;;24.30
50206;BMP280;36098;48.390;10.856;2023-08-07T03:30:26;95846.16;;;24.31
50206;BMP280;36098;48.390;10.856;2023-08-07T03:32:51;95830.41;;;24.26
50206;BMP280;36098;48.390;10.856;2023-08-07T03:35:17;95846.66;;;24.33
50206;BMP280;36098;48.390;10.856;2023-08-07T03:37:42;95838.31;;;24.26
50206;BMP280;36098;48.390;10.856;2023-08-07T03:40:08;95824.28;;;24.31
50206;BMP280;36098;48.390;10.856;2023-08-07T03:42:33;95835.41;;;24.28
50206;BMP280;36098;48.390;10.856;2023-08-07T03:44:58;95835.69;;;24.26
50206;BMP280;36098;48.390;10.856;2023-08-07T03:47:23;95854.94;;;24.27
50206;BMP280;36098;48.390;10.856;2023-08-07T03:49:49;95850.50;;;24.22
50206;BMP280;36098;48.390;10.856;2023-08-07T03:52:14;95857.28;;;24.28
50206;BMP280;36098;48.390;10.856;2023-08-07T03:54:40;95860.56;;;24.20
50206;BMP280;36098;48.390;10.856;2023-08-07T03:57:05;95865.03;;;24.20
50206;BMP280;36098;48.390;10.856;2023-08-07T03:59:30;95868.25;;;24.17
50206;BMP280;36098;48.390;10.856;2023-08-07T04:01:56;95866.41;;;24.17
50206;BMP280;36098;48.390;10.856;2023-08-07T04:04:21;95872.44;;;24.18
50206;BMP280;36098;48.390;10.856;2023-08-07T04:06:46;95884.31;;;24.20
50206;BMP280;36098;48.390;10.856;2023-08-07T04:09:12;95885.38;;;24.19
50206;BMP280;36098;48.390;10.856;2023-08-07T04:11:37;95885.19;;;24.11
50206;BMP280;36098;48.390;10.856;2023-08-07T04:14:02;95880.69;;;24.11
50206;BMP280;36098;48.390;10.856;2023-08-07T04:16:29;95879.63;;;24.12
50206;BMP280;36098;48.390;10.856;2023-08-07T04:18:56;95880.94;;;24.15
50206;BMP280;36098;48.390;10.856;2023-08-07T04:21:21;95889.09;;;24.13
50206;BMP280;36098;48.390;10.856;2023-08-07T04:23:46;95880.41;;;24.13
50206;BMP280;36098;48.390;10.856;2023-08-07T04:26:12;95881.00;;;24.10
50206;BMP280;36098;48.390;10.856;2023-08-07T04:28:37;95880.69;;;24.11
50206;BMP280;36098;48.390;10.856;2023-08-07T04:31:02;95892.78;;;24.17
50206;BMP280;36098;48.390;10.856;2023-08-07T04:33:28;95881.00;;;24.10
50206;BMP280;36098;48.390;10.856;2023-08-07T04:35:53;95887.59;;;24.07
50206;BMP280;36098;48.390;10.856;2023-08-07T04:38:19;95901.53;;;24.13
50206;BMP280;36098;48.390;10.856;2023-08-07T04:40:45;95900.78;;;24.07
50206;BMP280;36098;48.390;10.856;2023-08-07T04:43:11;95902.59;;;24.12
50206;BMP280;36098;48.390;10.856;2023-08-07T04:45:37;95896.50;;;24.16
50206;BMP280;36098;48.390;10.856;2023-08-07T04:48:04;95904.41;;;24.16
50206;BMP280;36098;48.390;10.856;2023-08-07T04:50:29;95904.44;;;24.11
50206;BMP280;36098;48.390;10.856;2023-08-07T04:52:55;95899.47;;;24.05
50206;BMP280;36098;48.390;10.856;2023-08-07T04:55:20;95903.19;;;24.04
50206;BMP280;36098;48.390;10.856;2023-08-07T04:57:45;95906.38;;;24.01
50206;BMP280;36098;48.390;10.856;2023-08-07T05:00:12;95907.31;;;24.15
50206;BMP280;36098;48.390;10.856;2023-08-07T05:02:37;95910.22;;;24.13
50206;BMP280;36098;48.390;10.856;2023-08-07T05:05:03;95900.03;;;24.02
50206;BMP280;36098;48.390;10.856;2023-08-07T05:07:29;95903.88;;;24.14
50206;BMP280;36098;48.390;10.856;2023-08-07T05:09:54;95908.69;;;24.07
50206;BMP280;36098;48.390;10.856;2023-08-07T05:12:19;95916.00;;;24.15
50206;BMP280;36098;48.390;10.856;2023-08-07T05:14:45;95910.13;;;24.23
50206;BMP280;36098;48.390;10.856;2023-08-07T05:17:10;95910.13;;;24.23
50206;BMP280;36098;48.390;10.856;2023-08-07T05:19:35;95913.34;;;24.15
50206;BMP280;36098;48.390;10.856;2023-08-07T05:22:01;95924.97;;;24.14
50206;BMP280;36098;48.390;10.856;2023-08-07T05:24:26;95921.50;;;24.19
50206;BMP280;36098;48.390;10.856;2023-08-07T05:26:51;95917.59;;;24.16
50206;BMP280;36098;48.390;10.856;2023-08-07T05:29:16;95928.91;;;24.17
50206;BMP280;36098;48.390;10.856;2023-08-07T05:31:42;95931.56;;;24.17
50206;BMP280;36098;48.390;10.856;2023-08-07T05:34:07;95939.72;;;24.20
50206;BMP280;36098;48.390;10.856;2023-08-07T05:36:32;95927.41;;;24.11
50206;BMP280;36098;48.390;10.856;2023-08-07T05:38:58;95927.66;;;24.09
50206;BMP280;36098;48.390;10.856;2023-08-07T05:41:23;95924.44;;;24.17
50206;BMP280;36098;48.390;10.856;2023-08-07T05:43:48;95922.91;;;24.11
50206;BMP280;36098;48.390;10.856;2023-08-07T05:46:14;95935.88;;;24.08
50206;BMP280;36098;48.390;10.856;2023-08-07T05:48:39;95932.88;;;24.14
50206;BMP280;36098;48.390;10.856;2023-08-07T05:51:05;95938.47;;;24.13
50206;BMP280;36098;48.390;10.856;2023-08-07T05:53:30;95941.34;;;24.16
50206;BMP280;36098;48.390;10.856;2023-08-07T05:55:56;95925.50;;;24.16
50206;BMP280;36098;48.390;10.856;2023-08-07T05:58:21;95932.88;;;24.14
50206;BMP280;36098;48.390;10.856;2023-08-07T06:00:46;95937.09;;;24.15
50206;BMP280;36098;48.390;10.856;2023-08-07T06:03:12;95950.25;;;24.20
50206;BMP280;36098;48.390;10.856;2023-08-07T06:05:37;95943.41;;;24.19
50206;BMP280;36098;48.390;10.856;2023-08-07T06:08:03;95934.44;;;24.20
50206;BMP280;36098;48.390;10.856;2023-08-07T06:10:28;95946.31;;;24.18
50206;BMP280;36098;48.390;10.856;2023-08-07T06:12:53;95946.19;;;24.04
50206;BMP280;36098;48.390;10.856;2023-08-07T06:15:19;95949.06;;;24.08
50206;BMP280;36098;48.390;10.856;2023-08-07T06:17:45;95948.22;;;24.12
50206;BMP280;36098;48.390;10.856;2023-08-07T06:20:10;95955.63;;;24.10
50206;BMP280;36098;48.390;10.856;2023-08-07T06:22:37;95957.09;;;24.21
50206;BMP280;36098;48.390;10.856;2023-08-07T06:25:03;95954.09;;;24.04
50206;BMP280;36098;48.390;10.856;2023-08-07T06:27:30;95950.91;;;24.07
50206;BMP280;36098;48.390;10.856;2023-08-07T06:29:56;95967.03;;;24.06
50206;BMP280;36098;48.390;10.856;2023-08-07T06:32:21;95961.44;;;24.07
50206;BMP280;36098;48.390;10.856;2023-08-07T06:34:47;95966.91;;;24.16
50206;BMP280;36098;48.390;10.856;2023-08-07T06:37:13;95971.44;;;24.10
50206;BMP280;36098;48.390;10.856;2023-08-07T06:39:38;95957.00;;;24.03
50206;BMP280;36098;48.390;10.856;2023-08-07T06:42:04;95964.47;;;23.96
50206;BMP280;36098;48.390;10.856;2023-08-07T06:44:29;95969.13;;;24.04
50206;BMP280;36098;48.390;10.856;2023-08-07T06:46:55;95962.75;;;24.10
50206;BMP280;36098;48.390;10.856;2023-08-07T06:49:20;95965.59;;;24.13
50206;BMP280;36098;48.390;10.856;2023-08-07T06:51:45;95974.69;;;24.02
50206;BMP280;36098;48.390;10.856;2023-08-07T06:54:10;95982.88;;;24.01
50206;BMP280;36098;48.390;10.856;2023-08-07T06:56:36;95987.19;;;23.92
50206;BMP280;36098;48.390;10.856;2023-08-07T06:59:03;95986.81;;;24.03
50206;BMP280;36098;48.390;10.856;2023-08-07T07:01:29;95988.97;;;24.25
50206;BMP280;36098;48.390;10.856;2023-08-07T07:03:54;95992.41;;;24.25
50206;BMP280;36098;48.390;10.856;2023-08-07T07:06:19;95986.13;;;24.50
50206;BMP280;36098;48.390;10.856;2023-08-07T07:08:46;95987.56;;;24.37
50206;BMP280;36098;48.390;10.856;2023-08-07T07:11:11;95990.59;;;24.49
50206;BMP280;36098;48.390;10.856;2023-08-07T07:13:37;95998.00;;;24.47
50206;BMP280;36098;48.390;10.856;2023-08-07T07:16:02;95985.31;;;24.49
50206;BMP280;36098;48.390;10.856;2023-08-07T07:18:27;95979.06;;;24.69
50206;BMP280;36098;48.390;10.856;2023-08-07T07:20:57;95992.69;;;24.52
50206;BMP280;36098;48.390;10.856;2023-08-07T07:23:23;95981.03;;;24.58
50206;BMP280;36098;48.390;10.856;2023-08-07T07:25:48;95986.03;;;24.83
50206;BMP280;36098;48.390;10.856;2023-08-07T07:28:13;95995.84;;;24.54
50206;BMP280;36098;48.390;10.856;2023-08-07T07:30:39;95982.22;;;24.42
50206;BMP280;36098;48.390;10.856;2023-08-07T07:33:04;95985.34;;;24.73
50206;BMP280;36098;48.390;10.856;2023-08-07T07:35:30;95987.38;;;24.81
50206;BMP280;36098;48.390;10.856;2023-08-07T07:37:55;95996.19;;;24.43
50206;BMP280;36098;48.390;10.856;2023-08-07T07:40:21;95994.44;;;24.33
50206;BMP280;36098;48.390;10.856;2023-08-07T07:42:46;96024.59;;;24.27
50206;BMP280;36098;48.390;10.856;2023-08-07T07:45:11;96002.91;;;24.30
50206;BMP280;36098;48.390;10.856;2023-08-07T07:47:36;96008.44;;;24.34
50206;BMP280;36098;48.390;10.856;2023-08-07T07:50:07;96012.50;;;24.21
50206;BMP280;36098;48.390;10.856;2023-08-07T07:52:33;96002.16;;;24.25
50206;BMP280;36098;48.390;10.856;2023-08-07T07:54:58;96015.59;;;24.28
50206;BMP280;36098;48.390;10.856;2023-08-07T07:57:24;96023.13;;;24.16
50206;BMP280;36098;48.390;10.856;2023-08-07T07:59:49;96015.75;;;24.42
50206;BMP280;36098;48.390;10.856;2023-08-07T08:02:15;96030.56;;;24.38
50206;BMP280;36098;48.390;10.856;2023-08-07T08:04:42;96043.31;;;24.31
50206;BMP280;36098;48.390;10.856;2023-08-07T08:07:08;96033.31;;;24.23
50206;BMP280;36098;48.390;10.856;2023-08-07T08:09:34;96041.59;;;24.11
50206;BMP280;36098;48.390;10.856;2023-08-07T08:11:59;96035.47;;;24.21
50206;BMP280;36098;48.390;10.856;2023-08-07T08:14:24;96055.34;;;24.08
50206;BMP280;36098;48.390;10.856;2023-08-07T08:16:50;96056.72;;;24.01
50206;BMP280;36098;48.390;10.856;2023-08-07T08:19:15;96062.00;;;24.01
50206;BMP280;36098;48.390;10.856;2023-08-07T08:21:42;96064.38;;;24.02
50206;BMP280;36098;48.390;10.856;2023-08-07T08:24:07;96064.38;;;24.02
50206;BMP280;36098;48.390;10.856;2023-08-07T08:26:32;96065.69;;;24.00
50206;BMP280;36098;48.390;10.856;2023-08-07T08:28:57;96057.00;;;23.99
50206;BMP280;36098;48.390;10.856;2023-08-07T08:31:23;96047.91;;;24.15
50206;BMP280;36098;48.390;10.856;2023-08-07T08:33:49;96056.16;;;24.04
50206;BMP280;36098;48.390;10.856;2023-08-07T08:36:14;96061.25;;;23.95
50206;BMP280;36098;48.390;10.856;2023-08-07T08:38:40;96065.50;;;23.91
50206;BMP280;36098;48.390;10.856;2023-08-07T08:41:07;96063.09;;;23.95
50206;BMP280;36098;48.390;10.856;2023-08-07T08:43:34;96061.22;;;24.00
50206;BMP280;36098;48.390;10.856;2023-08-07T08:46:01;96067.97;;;24.11
50206;BMP280;36098;48.390;10.856;2023-08-07T08:48:27;96064.09;;;24.04
50206;BMP280;36098;48.390;10.856;2023-08-07T08:50:56;96064.13;;;23.99
50206;BMP280;36098;48.390;10.856;2023-08-07T08:53:22;96065.16;;;24.03
50206;BMP280;36098;48.390;10.856;2023-08-07T08:55:50;96067.19;;;24.44
50206;BMP280;36098;48.390;10.856;2023-08-07T08:58:16;96067.44;;;24.76
50206;BMP280;36098;48.390;10.856;2023-08-07T09:00:42;96065.25;;;24.83
50206;BMP280;36098;48.390;10.856;2023-08-07T09:03:08;96067.34;;;24.86
50206;BMP280;36098;48.390;10.856;2023-08-07T09:05:34;96072.25;;;24.69
50206;BMP280;36098;48.390;10.856;2023-08-07T09:08:00;96081.75;;;24.70
50206;BMP280;36098;48.390;10.856;2023-08-07T09:10:26;96088.22;;;24.59
50206;BMP280;36098;48.390;10.856;2023-08-07T09:13:04;96080.75;;;24.66
50206;BMP280;36098;48.390;10.856;2023-08-07T09:15:32;96080.44;;;24.96
50206;BMP280;36098;48.390;10.856;2023-08-07T09:17:58;96084.81;;;24.82
50206;BMP280;36098;48.390;10.856;2023-08-07T09:20:27;96087.50;;;24.77
50206;BMP280;36098;48.390;10.856;2023-08-07T09:22:53;96090.78;;;24.64
50206;BMP280;36098;48.390;10.856;2023-08-07T09:25:29;96088.03;;;24.74
50206;BMP280;36098;48.390;10.856;2023-08-07T09:27:55;96089.53;;;24.85
50206;BMP280;36098;48.390;10.856;2023-08-07T09:30:26;96086.81;;;25.18
50206;BMP280;36098;48.390;10.856;2023-08-07T09:32:51;96081.09;;;24.83
50206;BMP280;36098;48.390;10.856;2023-08-07T09:35:20;96077.38;;;24.84
50206;BMP280;36098;48.390;10.856;2023-08-07T09:37:46;96078.81;;;25.00
50206;BMP280;36098;48.390;10.856;2023-08-07T09:40:11;96091.59;;;24.65
50206;BMP280;36098;48.390;10.856;2023-08-07T09:42:37;96085.03;;;24.86
50206;BMP280;36098;48.390;10.856;2023-08-07T09:45:19;96083.47;;;24.85
50206;BMP280;36098;48.390;10.856;2023-08-07T09:47:44;96081.31;;;24.63
50206;BMP280;36098;48.390;10.856;2023-08-07T09:50:15;96086.59;;;24.63
50206;BMP280;36098;48.390;10.856;2023-08-07T09:52:41;96100.75;;;24.72
50206;BMP280;36098;48.390;10.856;2023-08-07T09:55:06;96083.81;;;24.73
50206;BMP280;36098;48.390;10.856;2023-08-07T09:57:32;96085.84;;;24.58
50206;BMP280;36098;48.390;10.856;2023-08-07T09:59:59;96098.03;;;24.54
50206;BMP280;36098;48.390;10.856;2023-08-07T10:02:25;96088.25;;;24.49
50206;BMP280;36098;48.390;10.856;2023-08-07T10:04:50;96080.28;;;24.59
50206;BMP280;36098;48.390;10.856;2023-08-07T10:07:19;96089.06;;;24.50
50206;BMP280;36098;48.390;10.856;2023-08-07T10:09:44;96085.22;;;24.37
50206;BMP280;36098;48.390;10.856;2023-08-07T10:12:11;96085.16;;;24.42
50206;BMP280;36098;48.390;10.856;2023-08-07T10:14:36;96077.03;;;24.34
50206;BMP280;36098;48.390;10.856;2023-08-07T10:17:02;96075.75;;;24.31
50206;BMP280;36098;48.390;10.856;2023-08-07T10:19:27;96080.00;;;24.27
50206;BMP280;36098;48.390;10.856;2023-08-07T10:21:53;96086.81;;;24.33
50206;BMP280;36098;48.390;10.856;2023-08-07T10:24:19;96076.19;;;24.43
50206;BMP280;36098;48.390;10.856;2023-08-07T10:26:46;96080.75;;;24.33
50206;BMP280;36098;48.390;10.856;2023-08-07T10:29:14;96085.72;;;24.39
50206;BMP280;36098;48.390;10.856;2023-08-07T10:31:44;96081.22;;;24.40
50206;BMP280;36098;48.390;10.856;2023-08-07T10:34:10;96096.09;;;24.31
50206;BMP280;36098;48.390;10.856;2023-08-07T10:36:36;96111.50;;;24.47
50206;BMP280;36098;48.390;10.856;2023-08-07T10:39:10;96112.53;;;24.56
50206;BMP280;36098;48.390;10.856;2023-08-07T10:41:45;96107.19;;;24.61
50206;BMP280;36098;48.390;10.856;2023-08-07T10:44:24;96103.50;;;24.62
50206;BMP280;36098;48.390;10.856;2023-08-07T10:49:35;96088.91;;;24.70
50206;BMP280;36098;48.390;10.856;2023-08-07T10:52:14;96100.66;;;24.82
50206;BMP280;36098;48.390;10.856;2023-08-07T10:54:48;96100.41;;;24.79
50206;BMP280;36098;48.390;10.856;2023-08-07T10:57:15;96085.75;;;24.91
50206;BMP280;36098;48.390;10.856;2023-08-07T11:00:04;96084.97;;;24.91
50206;BMP280;36098;48.390;10.856;2023-08-07T11:02:31;96084.94;;;24.96
50206;BMP280;36098;48.390;10.856;2023-08-07T11:04:58;96079.97;;;24.89
50206;BMP280;36098;48.390;10.856;2023-08-07T11:07:25;96086.25;;;24.70
50206;BMP280;36098;48.390;10.856;2023-08-07T11:09:51;96085.50;;;24.93
50206;BMP280;36098;48.390;10.856;2023-08-07T11:12:16;96082.91;;;24.88
50206;BMP280;36098;48.390;10.856;2023-08-07T11:14:41;96092.00;;;24.43
50206;BMP280;36098;48.390;10.856;2023-08-07T11:17:07;96083.19;;;24.24
50206;BMP280;36098;48.390;10.856;2023-08-07T11:19:33;96085.38;;;24.12
50206;BMP280;36098;48.390;10.856;2023-08-07T11:21:58;96080.97;;;24.08
50206;BMP280;36098;48.390;10.856;2023-08-07T11:24:26;96093.09;;;24.09
50206;BMP280;36098;48.390;10.856;2023-08-07T11:26:52;96089.94;;;24.02
50206;BMP280;36098;48.390;10.856;2023-08-07T11:29:18;96082.53;;;24.09
50206;BMP280;36098;48.390;10.856;2023-08-07T11:31:44;96073.41;;;24.30
50206;BMP280;36098;48.390;10.856;2023-08-07T11:34:10;96078.75;;;24.53
50206;BMP280;36098;48.390;10.856;2023-08-07T11:36:42;96087.34;;;24.30
50206;BMP280;36098;48.390;10.856;2023-08-07T11:39:08;96081.38;;;24.20
50206;BMP280;36098;48.390;10.856;2023-08-07T11:41:33;96086.44;;;24.11
50206;BMP280;36098;48.390;10.856;2023-08-07T11:43:59;96081.63;;;24.23
50206;BMP280;36098;48.390;10.856;2023-08-07T11:46:25;96088.53;;;24.19
50206;BMP280;36098;48.390;10.856;2023-08-07T11:48:51;96074.28;;;24.15
50206;BMP280;36098;48.390;10.856;2023-08-07T11:51:17;96073.97;;;24.22
50206;BMP280;36098;48.390;10.856;2023-08-07T11:53:42;96080.59;;;24.19
50206;BMP280;36098;48.390;10.856;2023-08-07T11:56:12;96077.19;;;24.47
50206;BMP280;36098;48.390;10.856;2023-08-07T11:58:45;96072.03;;;24.32
50206;BMP280;36098;48.390;10.856;2023-08-07T12:01:18;96083.59;;;24.41
50206;BMP280;36098;48.390;10.856;2023-08-07T12:03:52;96082.56;;;24.37
50206;BMP280;36098;48.390;10.856;2023-08-07T12:06:18;96082.56;;;24.37
50206;BMP280;36098;48.390;10.856;2023-08-07T12:08:44;96096.84;;;24.31
50206;BMP280;36098;48.390;10.856;2023-08-07T12:11:11;96092.13;;;24.28
50206;BMP280;36098;48.390;10.856;2023-08-07T12:13:37;96097.75;;;24.50
50206;BMP280;36098;48.390;10.856;2023-08-07T12:16:03;96095.38;;;24.54
50206;BMP280;36098;48.390;10.856;2023-08-07T12:18:30;96100.09;;;24.85
50206;BMP280;36098;48.390;10.856;2023-08-07T12:21:03;96101.41;;;24.59
50206;BMP280;36098;48.390;10.856;2023-08-07T12:23:35;96105.22;;;24.43
50206;BMP280;36098;48.390;10.856;2023-08-07T12:26:01;96108.16;;;24.37
50206;BMP280;36098;48.390;10.856;2023-08-07T12:28:26;96108.88;;;24.47
50206;BMP280;36098;48.390;10.856;2023-08-07T12:30:52;96107.38;;;24.70
50206;BMP280;36098;48.390;10.856;2023-08-07T12:33:18;96121.63;;;24.97
50206;BMP280;36098;48.390;10.856;2023-08-07T12:35:43;96125.53;;;25.05
50206;BMP280;36098;48.390;10.856;2023-08-07T12:38:09;96113.59;;;25.07
50206;BMP280;36098;48.390;10.856;2023-08-07T12:40:35;96115.50;;;25.02
50206;BMP280;36098;48.390;10.856;2023-08-07T12:43:04;96133.84;;;25.16
50206;BMP280;36098;48.390;10.856;2023-08-07T12:45:29;96129.16;;;25.37
50206;BMP280;36098;48.390;10.856;2023-08-07T12:47:55;96123.66;;;25.52
50206;BMP280;36098;48.390;10.856;2023-08-07T12:50:20;96130.91;;;25.46
50206;BMP280;36098;48.390;10.856;2023-08-07T12:52:45;96124.06;;;25.40
50206;BMP280;36098;48.390;10.856;2023-08-07T12:55:11;96126.94;;;24.97
50206;BMP280;36098;48.390;10.856;2023-08-07T12:57:37;96125.16;;;24.88
50206;BMP280;36098;48.390;10.856;2023-08-07T13:00:03;96127.50;;;24.66
50206;BMP280;36098;48.390;10.856;2023-08-07T13:02:29;96120.41;;;24.61
50206;BMP280;36098;48.390;10.856;2023-08-07T13:04:54;96128.13;;;24.81
50206;BMP280;36098;48.390;10.856;2023-08-07T13:07:20;96125.69;;;24.90
50206;BMP280;36098;48.390;10.856;2023-08-07T13:09:45;96133.72;;;25.03
50206;BMP280;36098;48.390;10.856;2023-08-07T13:12:11;96134.34;;;24.95
50206;BMP280;36098;48.390;10.856;2023-08-07T13:14:36;96138.75;;;25.00
50206;BMP280;36098;48.390;10.856;2023-08-07T13:17:01;96137.25;;;25.22
50206;BMP280;36098;48.390;10.856;2023-08-07T13:19:26;96160.53;;;25.20
50206;BMP280;36098;48.390;10.856;2023-08-07T13:21:52;96149.00;;;25.06
50206;BMP280;36098;48.390;10.856;2023-08-07T13:24:17;96154.59;;;25.05
50206;BMP280;36098;48.390;10.856;2023-08-07T13:26:42;96166.16;;;24.80
50206;BMP280;36098;48.390;10.856;2023-08-07T13:29:13;96167.19;;;24.84
50206;BMP280;36098;48.390;10.856;2023-08-07T13:31:39;96172.03;;;25.01
50206;BMP280;36098;48.390;10.856;2023-08-07T13:34:06;96177.13;;;24.97
50206;BMP280;36098;48.390;10.856;2023-08-07T13:36:36;96163.22;;;25.10
50206;BMP280;36098;48.390;10.856;2023-08-07T13:39:03;96187.13;;;25.00
50206;BMP280;36098;48.390;10.856;2023-08-07T13:41:29;96185.88;;;24.59
50206;BMP280;36098;48.390;10.856;2023-08-07T13:43:54;96194.44;;;24.41
50206;BMP280;36098;48.390;10.856;2023-08-07T13:46:19;96186.47;;;24.51
50206;BMP280;36098;48.390;10.856;2023-08-07T13:48:45;96209.72;;;24.44
50206;BMP280;36098;48.390;10.856;2023-08-07T13:51:10;96206.25;;;24.49
50206;BMP280;36098;48.390;10.856;2023-08-07T13:53:36;96203.25;;;24.65
50206;BMP280;36098;48.390;10.856;2023-08-07T13:56:02;96200.31;;;24.72